createdAt,value
2018-09-23T00:00:40.018Z,11.03
2018-09-23T00:03:09.463Z,11.47
2018-09-23T00:05:39.534Z,11.00
2018-09-23T00:11:11.461Z,13.20
2018-09-23T00:20:14.634Z,11.30
2018-09-23T00:23:14.752Z,10.67
2018-09-23T00:28:44.094Z,11.47
2018-09-23T00:31:13.445Z,12.07
2018-09-23T00:34:30.094Z,13.00
2018-09-23T00:37:19.084Z,11.40
2018-09-23T00:40:11.879Z,10.70
2018-09-23T00:46:47.158Z,13.20
2018-09-23T00:49:16.526Z,13.73
2018-09-23T00:51:53.601Z,12.80
2018-09-23T00:54:30.095Z,13.20
2018-09-23T00:57:06.819Z,16.63
2018-09-23T00:59:36.835Z,15.00
2018-09-23T01:02:06.477Z,16.00
2018-09-23T01:04:48.273Z,14.47
2018-09-23T01:07:17.991Z,15.37
2018-09-23T01:12:40.136Z,20.70
2018-09-23T01:15:13.191Z,16.57
2018-09-23T01:17:42.840Z,18.17
2018-09-23T01:20:22.407Z,17.90
2018-09-23T01:22:52.392Z,19.43
2018-09-23T01:25:23.257Z,20.80
2018-09-23T01:27:53.671Z,21.33
2018-09-23T01:30:23.127Z,20.80
2018-09-23T01:32:54.328Z,21.63
2018-09-23T01:35:57.480Z,20.67
2018-09-23T01:38:54.740Z,23.47
2018-09-23T01:41:24.438Z,23.27
2018-09-23T01:43:57.223Z,23.73
2018-09-23T01:46:26.590Z,26.23
2018-09-23T01:48:56.566Z,25.07
2018-09-23T01:51:25.918Z,24.47
2018-09-23T01:57:34.592Z,25.20
2018-09-23T02:00:03.964Z,27.87
2018-09-23T02:02:57.800Z,28.57
2018-09-23T02:08:28.973Z,27.50
2018-09-23T02:10:58.433Z,27.17
2018-09-23T02:13:27.891Z,26.60
2018-09-23T02:15:57.079Z,28.63
2018-09-23T02:18:27.308Z,32.30
2018-09-23T02:20:57.262Z,31.03
2018-09-23T02:23:28.136Z,30.20
2018-09-23T02:26:03.532Z,31.90
2018-09-23T02:28:34.094Z,29.30
2018-09-23T02:35:57.861Z,31.03
2018-09-23T02:38:31.683Z,29.13
2018-09-23T02:41:01.085Z,28.30
2018-09-23T02:43:30.487Z,28.77
2018-09-23T02:46:01.862Z,29.37
2018-09-23T02:48:31.677Z,30.50
2018-09-23T02:51:00.962Z,27.80
2018-09-23T02:53:40.668Z,32.93
2018-09-23T02:56:10.476Z,31.80
2018-09-23T02:58:40.263Z,29.83
2018-09-23T03:01:09.895Z,28.70
2018-09-23T03:03:39.426Z,29.30
2018-09-23T03:06:47.124Z,28.70
2018-09-23T03:09:38.983Z,31.30
2018-09-23T03:14:52.901Z,28.12
2018-09-23T03:17:22.370Z,28.57
2018-09-23T03:19:51.784Z,26.53
2018-09-23T03:22:22.253Z,28.40
2018-09-23T03:24:52.023Z,28.10
2018-09-23T03:28:37.578Z,25.00
2018-09-23T03:31:07.152Z,26.10
2018-09-23T03:34:12.347Z,26.70
2018-09-23T03:37:26.769Z,27.57
2018-09-23T03:40:15.007Z,27.47
2018-09-23T03:48:51.418Z,25.73
2018-09-23T03:51:20.570Z,26.37
2018-09-23T03:53:49.748Z,26.50
2018-09-23T03:56:18.913Z,23.83
2018-09-23T03:59:35.833Z,25.30
2018-09-23T04:02:04.995Z,23.27
2018-09-23T04:05:30.757Z,25.37
2018-09-23T04:07:59.837Z,23.97
2018-09-23T04:10:29.004Z,25.40
2018-09-23T04:12:58.076Z,26.13
2018-09-23T04:15:27.288Z,27.53
2018-09-23T04:17:56.369Z,25.93
2018-09-23T04:23:22.725Z,28.30
2018-09-23T04:25:51.884Z,28.23
2018-09-23T04:31:09.113Z,28.80
2018-09-23T04:33:38.290Z,26.40
2018-09-23T04:36:07.463Z,30.10
2018-09-23T04:38:36.578Z,29.13
2018-09-23T04:41:05.752Z,29.57
2018-09-23T04:43:34.877Z,29.07
2018-09-23T04:46:30.168Z,30.00
2018-09-23T04:52:06.272Z,31.48
2018-09-23T04:54:35.344Z,29.87
2018-09-23T04:57:28.594Z,28.50
2018-09-23T05:00:31.678Z,30.00
2018-09-23T05:03:00.857Z,30.93
2018-09-23T05:05:30.083Z,30.70
2018-09-23T05:07:59.280Z,32.13
2018-09-23T05:10:28.439Z,34.47
2018-09-23T05:12:57.630Z,28.70
2018-09-23T05:16:16.089Z,30.93
2018-09-23T05:18:46.401Z,29.30
2018-09-23T05:21:15.455Z,30.77
2018-09-23T05:23:44.483Z,27.90
2018-09-23T05:26:13.575Z,28.73
2018-09-23T05:28:42.861Z,27.87
2018-09-23T05:31:11.945Z,27.33
2018-09-23T05:33:41.053Z,29.70
2018-09-23T05:36:10.158Z,31.13
2018-09-23T05:38:39.234Z,28.40
2018-09-23T05:41:37.141Z,29.40
2018-09-23T05:44:07.071Z,30.97
2018-09-23T05:46:36.115Z,38.27
2018-09-23T05:49:05.317Z,29.87
2018-09-23T05:51:34.436Z,31.03
2018-09-23T05:54:05.360Z,30.50
2018-09-23T05:56:34.561Z,31.73
2018-09-23T06:01:53.838Z,32.70
2018-09-23T06:04:23.009Z,30.40
2018-09-23T06:06:52.131Z,31.00
2018-09-23T06:11:59.106Z,29.27
2018-09-23T06:14:28.205Z,31.77
2018-09-23T06:17:20.670Z,28.90
2018-09-23T06:19:49.800Z,30.20
2018-09-23T06:22:18.845Z,29.80
2018-09-23T06:25:18.464Z,28.57
2018-09-23T06:27:50.106Z,28.83
2018-09-23T06:33:28.251Z,31.87
2018-09-23T06:36:11.762Z,29.10
2018-09-23T06:38:44.314Z,28.33
2018-09-23T06:41:17.064Z,29.53
2018-09-23T06:43:46.241Z,27.73
2018-09-23T06:46:15.391Z,27.47
2018-09-23T06:48:44.573Z,28.43
2018-09-23T06:51:14.960Z,28.07
2018-09-23T06:53:44.090Z,28.67
2018-09-23T06:56:13.758Z,29.20
2018-09-23T06:58:42.850Z,26.10
2018-09-23T07:01:12.157Z,28.40
2018-09-23T07:03:41.225Z,28.47
2018-09-23T07:06:10.314Z,25.30
2018-09-23T07:08:39.660Z,25.30
2018-09-23T07:14:11.473Z,26.50
2018-09-23T07:16:51.820Z,26.20
2018-09-23T07:23:01.310Z,25.70
2018-09-23T07:28:36.724Z,26.47
2018-09-23T07:34:15.831Z,24.43
2018-09-23T07:36:45.338Z,24.40
2018-09-23T07:39:24.341Z,23.87
2018-09-23T07:41:53.569Z,26.63
2018-09-23T07:44:23.820Z,23.83
2018-09-23T07:46:54.042Z,26.03
2018-09-23T07:49:24.673Z,25.83
2018-09-23T07:51:56.873Z,25.27
2018-09-23T07:54:26.324Z,26.77
2018-09-23T08:00:13.704Z,25.72
2018-09-23T08:02:42.980Z,25.27
2018-09-23T08:05:26.535Z,25.93
2018-09-23T08:08:13.191Z,26.03
2018-09-23T08:11:01.061Z,24.33
2018-09-23T08:13:32.352Z,25.53
2018-09-23T08:16:01.578Z,26.10
2018-09-23T08:21:36.860Z,24.90
2018-09-23T08:24:05.994Z,23.63
2018-09-23T08:26:35.193Z,24.63
2018-09-23T08:29:06.369Z,25.83
2018-09-23T08:31:36.070Z,24.90
2018-09-23T08:34:29.452Z,24.07
2018-09-23T08:42:58.650Z,24.73
2018-09-23T08:48:43.701Z,21.40
2018-09-23T08:51:13.045Z,23.17
2018-09-23T08:53:51.474Z,23.70
2018-09-23T08:56:20.664Z,23.63
2018-09-23T09:02:39.699Z,24.50
2018-09-23T09:05:09.026Z,25.80
2018-09-23T09:07:38.815Z,22.40
2018-09-23T09:10:10.022Z,22.97
2018-09-23T09:12:39.700Z,23.83
2018-09-23T09:15:10.010Z,22.63
2018-09-23T09:17:39.570Z,35.70
2018-09-23T09:20:16.605Z,25.27
2018-09-23T09:23:08.087Z,23.90
2018-09-23T09:26:25.496Z,24.17
2018-09-23T09:29:10.021Z,25.90
2018-09-23T09:38:50.886Z,20.57
2018-09-23T09:41:20.207Z,21.83
2018-09-23T09:43:50.002Z,20.73
2018-09-23T09:46:19.552Z,18.50
2018-09-23T09:48:48.710Z,20.90
2018-09-23T09:51:18.192Z,22.63
2018-09-23T09:53:47.387Z,20.80
2018-09-23T09:56:16.640Z,21.33
2018-09-23T09:58:46.850Z,20.23
2018-09-23T10:01:16.258Z,19.00
2018-09-23T10:03:45.749Z,19.17
2018-09-23T10:06:14.976Z,17.90
2018-09-23T10:08:46.552Z,18.03
2018-09-23T10:11:17.185Z,17.73
2018-09-23T10:13:47.178Z,16.67
2018-09-23T10:16:16.876Z,17.10
2018-09-23T10:18:46.681Z,14.77
2018-09-23T10:21:16.822Z,15.93
2018-09-23T10:23:46.518Z,16.60
2018-09-23T10:26:15.652Z,14.70
2018-09-23T10:28:45.052Z,14.73
2018-09-23T10:31:14.374Z,15.20
2018-09-23T10:33:43.554Z,15.93
2018-09-23T10:36:12.741Z,14.43
2018-09-23T10:38:41.900Z,16.67
2018-09-23T10:41:18.901Z,15.63
2018-09-23T10:43:49.513Z,16.80
2018-09-23T10:48:57.344Z,17.43
2018-09-23T10:51:26.799Z,18.90
2018-09-23T10:53:56.102Z,18.20
2018-09-23T10:56:25.469Z,12.57
2018-09-23T10:58:55.387Z,15.87
2018-09-23T11:01:27.650Z,18.67
2018-09-23T11:03:57.092Z,14.70
2018-09-23T11:06:26.094Z,14.30
2018-09-23T11:08:55.354Z,13.87
2018-09-23T11:11:25.136Z,14.07
2018-09-23T11:13:54.305Z,15.30
2018-09-23T11:16:24.211Z,14.27
2018-09-23T11:18:53.469Z,12.97
2018-09-23T11:21:22.583Z,12.50
2018-09-23T11:23:51.750Z,12.33
2018-09-23T11:26:26.823Z,12.90
2018-09-23T11:28:59.594Z,11.50
2018-09-23T11:31:28.736Z,11.60
2018-09-23T11:33:57.860Z,11.00
2018-09-23T11:36:26.967Z,11.37
2018-09-23T11:38:56.707Z,11.60
2018-09-23T11:41:25.959Z,9.87
2018-09-23T11:44:00.517Z,11.50
2018-09-23T11:46:33.399Z,11.10
2018-09-23T11:49:03.313Z,11.40
2018-09-23T11:51:32.761Z,9.30
2018-09-23T11:54:02.010Z,11.43
2018-09-23T11:56:31.213Z,11.20
2018-09-23T11:59:00.651Z,10.27
2018-09-23T12:01:29.754Z,11.27
2018-09-23T12:03:59.756Z,10.70
2018-09-23T12:06:29.057Z,11.80
2018-09-23T12:08:58.168Z,9.73
2018-09-23T12:11:34.680Z,10.30
2018-09-23T12:14:03.907Z,9.77
2018-09-23T12:16:33.140Z,12.33
2018-09-23T12:19:02.481Z,10.53
2018-09-23T12:21:31.639Z,10.50
2018-09-23T12:24:00.732Z,10.43
2018-09-23T12:26:29.828Z,9.30
2018-09-23T12:29:09.664Z,9.70
2018-09-23T12:31:39.684Z,9.80
2018-09-23T12:34:09.611Z,10.77
2018-09-23T12:36:39.941Z,8.73
2018-09-23T12:39:13.436Z,9.80
2018-09-23T12:41:42.711Z,7.90
2018-09-23T12:44:12.013Z,8.57
2018-09-23T12:46:41.290Z,8.30
2018-09-23T12:49:10.660Z,8.97
2018-09-23T12:51:40.409Z,7.53
2018-09-23T12:54:10.035Z,8.47
2018-09-23T12:56:39.442Z,8.73
2018-09-23T12:59:08.775Z,8.37
2018-09-23T13:01:43.798Z,7.33
2018-09-23T13:04:13.017Z,7.10
2018-09-23T13:06:42.151Z,7.40
2018-09-23T13:09:11.263Z,8.20
2018-09-23T13:11:55.498Z,6.93
2018-09-23T13:14:24.642Z,7.20
2018-09-23T13:17:00.888Z,5.50
2018-09-23T13:19:30.091Z,4.00
2018-09-23T13:22:00.805Z,4.53
2018-09-23T13:24:29.914Z,5.03
2018-09-23T13:27:02.031Z,4.80
2018-09-23T13:29:31.195Z,3.90
2018-09-23T13:32:00.431Z,4.03
2018-09-23T13:34:29.486Z,3.40
2018-09-23T13:36:59.233Z,3.50
2018-09-23T13:39:28.565Z,3.00
2018-09-23T13:41:58.281Z,3.20
2018-09-23T13:44:27.479Z,3.27
2018-09-23T13:46:56.814Z,3.00
2018-09-23T13:49:26.349Z,4.13
2018-09-23T13:51:56.324Z,3.63
2018-09-23T13:57:21.014Z,4.00
2018-09-23T13:59:51.666Z,4.80
2018-09-23T14:02:22.492Z,4.03
2018-09-23T14:04:52.366Z,4.30
2018-09-23T14:10:24.011Z,4.60
2018-09-23T14:12:53.663Z,4.30
2018-09-23T14:15:23.745Z,4.00
2018-09-23T14:17:58.932Z,4.20
2018-09-23T14:20:28.242Z,3.57
2018-09-23T14:23:27.395Z,4.30
2018-09-23T14:25:59.962Z,4.07
2018-09-23T14:28:29.438Z,4.77
2018-09-23T14:30:58.995Z,4.20
2018-09-23T14:33:57.366Z,3.97
2018-09-23T14:39:04.893Z,4.23
2018-09-23T14:41:34.122Z,4.30
2018-09-23T14:44:03.337Z,4.03
2018-09-23T14:46:32.881Z,5.50
2018-09-23T14:49:03.139Z,4.33
2018-09-23T14:51:32.721Z,4.60
2018-09-23T14:54:01.961Z,3.30
2018-09-23T14:56:32.122Z,3.60
2018-09-23T14:59:01.464Z,4.27
2018-09-23T15:01:30.692Z,3.30
2018-09-23T15:03:59.844Z,2.77
2018-09-23T15:06:29.121Z,1.80
2018-09-23T15:08:58.202Z,3.60
2018-09-23T15:11:33.809Z,3.30
2018-09-23T15:14:03.008Z,3.07
2018-09-23T15:16:32.413Z,3.57
2018-09-23T15:19:01.634Z,3.27
2018-09-23T15:21:30.967Z,3.27
2018-09-23T15:24:00.112Z,3.20
2018-09-23T15:26:29.270Z,3.30
2018-09-23T15:28:58.479Z,3.00
2018-09-23T15:31:28.291Z,2.73
2018-09-23T15:33:57.382Z,4.70
2018-09-23T15:36:26.522Z,3.77
2018-09-23T15:38:55.626Z,4.20
2018-09-23T15:41:24.756Z,3.67
2018-09-23T15:46:49.972Z,4.33
2018-09-23T15:49:19.071Z,3.70
2018-09-23T15:51:48.257Z,4.27
2018-09-23T15:54:17.385Z,4.80
2018-09-23T15:56:48.508Z,4.47
2018-09-23T15:59:17.892Z,4.70
2018-09-23T16:02:19.210Z,4.60
2018-09-23T16:04:48.505Z,4.67
2018-09-23T16:07:17.793Z,5.13
2018-09-23T16:09:47.249Z,3.57
2018-09-23T16:12:16.698Z,4.17
2018-09-23T16:14:46.087Z,3.70
2018-09-23T16:17:15.280Z,3.73
2018-09-23T16:19:44.533Z,4.13
2018-09-23T16:22:15.335Z,3.97
2018-09-23T16:24:44.556Z,3.60
2018-09-23T16:27:13.827Z,4.47
2018-09-23T16:29:43.121Z,3.90
2018-09-23T16:32:15.017Z,3.73
2018-09-23T16:34:44.238Z,3.70
2018-09-23T16:37:13.358Z,4.43
2018-09-23T16:39:42.448Z,5.37
2018-09-23T16:42:11.593Z,4.90
2018-09-23T16:44:40.625Z,4.33
2018-09-23T16:47:09.693Z,4.60
2018-09-23T16:49:38.751Z,3.30
2018-09-23T16:52:07.869Z,4.37
2018-09-23T16:54:37.500Z,3.47
2018-09-23T16:57:06.634Z,3.97
2018-09-23T16:59:35.889Z,3.10
2018-09-23T17:02:05.022Z,3.23
2018-09-23T17:04:34.533Z,4.50
2018-09-23T17:07:03.797Z,3.33
2018-09-23T17:12:14.970Z,3.73
2018-09-23T17:14:44.080Z,4.90
2018-09-23T17:17:13.306Z,4.50
2018-09-23T17:19:42.387Z,4.47
2018-09-23T17:22:11.829Z,4.40
2018-09-23T17:24:41.012Z,3.53
2018-09-23T17:29:52.673Z,4.23
2018-09-23T17:32:21.853Z,5.10
2018-09-23T17:34:51.046Z,5.77
2018-09-23T17:37:20.195Z,5.60
2018-09-23T17:39:50.211Z,6.30
2018-09-23T17:42:19.323Z,5.60
2018-09-23T17:44:48.391Z,5.20
2018-09-23T17:47:32.693Z,5.77
2018-09-23T17:50:02.136Z,5.10
2018-09-23T17:52:31.659Z,4.60
2018-09-23T17:55:01.179Z,4.10
2018-09-23T17:57:30.980Z,4.30
2018-09-23T18:00:02.084Z,4.87
2018-09-23T18:16:31.482Z,5.25
2018-09-23T18:19:01.888Z,3.97
2018-09-23T18:21:31.175Z,4.70
2018-09-23T18:24:57.304Z,5.73
2018-09-23T18:27:26.677Z,4.27
2018-09-23T18:29:56.051Z,4.10
2018-09-23T18:32:25.177Z,4.70
2018-09-23T18:35:07.352Z,4.10
2018-09-23T18:37:49.485Z,4.03
2018-09-23T18:40:18.741Z,3.63
2018-09-23T18:42:47.860Z,3.40
2018-09-23T18:45:17.125Z,3.70
2018-09-23T18:47:46.448Z,3.50
2018-09-23T18:50:15.722Z,3.70
2018-09-23T18:52:45.089Z,3.97
2018-09-23T18:55:19.409Z,3.47
2018-09-23T18:57:48.625Z,2.70
2018-09-23T19:00:47.799Z,4.73
2018-09-23T19:03:17.055Z,3.50
2018-09-23T19:05:46.339Z,3.17
2018-09-23T19:08:15.819Z,3.13
2018-09-23T19:10:45.837Z,2.20
2018-09-23T19:13:20.398Z,2.53
2018-09-23T19:15:55.096Z,2.20
2018-09-23T19:18:24.169Z,3.10
2018-09-23T19:20:53.418Z,2.20
2018-09-23T19:23:22.668Z,2.93
2018-09-23T19:25:51.804Z,1.80
2018-09-23T19:28:21.050Z,2.20
2018-09-23T19:30:50.362Z,1.80
2018-09-23T19:33:19.536Z,2.07
2018-09-23T19:35:48.679Z,4.47
2018-09-23T19:38:17.990Z,3.40
2018-09-23T19:40:47.218Z,2.13
2018-09-23T19:43:16.540Z,2.33
2018-09-23T19:45:45.759Z,1.80
2018-09-23T19:48:14.990Z,2.50
2018-09-23T19:50:49.185Z,2.83
2018-09-23T19:53:18.866Z,2.10
2018-09-23T19:55:48.125Z,2.50
2018-09-23T19:58:18.267Z,2.87
2018-09-23T20:01:21.365Z,2.70
2018-09-23T20:03:52.963Z,1.63
2018-09-23T20:06:22.597Z,2.67
2018-09-23T20:08:53.082Z,2.00
2018-09-23T20:11:25.921Z,1.80
2018-09-23T20:14:02.791Z,3.00
2018-09-23T20:16:31.960Z,1.80
2018-09-23T20:19:28.927Z,1.90
2018-09-23T20:21:58.698Z,2.40
2018-09-23T20:27:33.637Z,2.25
2018-09-23T20:30:03.231Z,1.20
2018-09-23T20:32:32.386Z,2.67
2018-09-23T20:35:01.664Z,2.47
2018-09-23T20:37:38.659Z,1.77
2018-09-23T20:40:07.870Z,2.03
2018-09-23T20:42:37.211Z,1.47
2018-09-23T20:45:06.891Z,1.83
2018-09-23T20:47:40.790Z,2.20
2018-09-23T20:50:10.606Z,1.60
2018-09-23T20:52:39.818Z,1.57
2018-09-23T20:55:09.058Z,1.60
2018-09-23T20:57:38.212Z,1.50
2018-09-23T21:00:08.032Z,1.90
2018-09-23T21:02:37.175Z,1.20
2018-09-23T21:05:06.751Z,1.50
2018-09-23T21:07:35.931Z,1.53
2018-09-23T21:10:05.373Z,1.57
2018-09-23T21:12:34.548Z,1.10
2018-09-23T21:15:05.308Z,2.20
2018-09-23T21:17:35.617Z,1.30
2018-09-23T21:20:05.514Z,1.20
2018-09-23T21:22:34.748Z,1.60
2018-09-23T21:25:04.351Z,1.73
2018-09-23T21:27:33.704Z,1.93
2018-09-23T21:30:03.082Z,1.57
2018-09-23T21:32:32.335Z,2.00
2018-09-23T21:35:01.515Z,1.10
2018-09-23T21:37:30.869Z,1.10
2018-09-23T21:40:00.004Z,1.13
2018-09-23T21:42:29.143Z,1.97
2018-09-23T21:44:58.331Z,2.20
2018-09-23T21:47:27.721Z,1.00
2018-09-23T21:49:56.781Z,1.17
2018-09-23T21:52:25.894Z,1.30
2018-09-23T21:54:55.066Z,0.90
2018-09-23T21:57:24.700Z,1.30
2018-09-23T22:02:40.337Z,1.90
2018-09-23T22:05:10.072Z,0.80
2018-09-23T22:07:39.307Z,1.53
2018-09-23T22:10:08.518Z,1.40
2018-09-23T22:12:37.588Z,1.07
2018-09-23T22:15:10.940Z,1.20
2018-09-23T22:17:42.326Z,0.90
2018-09-23T22:20:11.426Z,1.80
2018-09-23T22:22:40.556Z,1.33
2018-09-23T22:25:09.811Z,1.40
2018-09-23T22:27:39.054Z,1.23
2018-09-23T22:30:09.566Z,1.03
2018-09-23T22:32:38.696Z,1.60
2018-09-23T22:35:08.707Z,1.07
2018-09-23T22:37:47.124Z,1.87
2018-09-23T22:40:17.360Z,1.73
2018-09-23T22:42:46.582Z,1.30
2018-09-23T22:45:15.817Z,1.40
2018-09-23T22:47:47.109Z,1.47
2018-09-23T22:50:16.863Z,1.30
2018-09-23T22:52:49.305Z,1.30
2018-09-23T22:55:20.149Z,1.67
2018-09-23T22:57:49.574Z,1.23
2018-09-23T23:00:18.820Z,1.03
2018-09-23T23:02:48.075Z,1.20
2018-09-23T23:05:17.252Z,1.33
2018-09-23T23:07:47.437Z,1.30
2018-09-23T23:10:16.614Z,1.40
2018-09-23T23:12:45.842Z,1.60
2018-09-23T23:15:14.974Z,1.03
2018-09-23T23:17:44.026Z,1.07
2018-09-23T23:20:13.192Z,1.20
2018-09-23T23:22:42.263Z,1.27
2018-09-23T23:25:11.392Z,0.87
2018-09-23T23:27:40.443Z,1.20
2018-09-23T23:33:10.230Z,1.83
2018-09-23T23:35:39.414Z,1.03
2018-09-23T23:38:08.578Z,1.20
2018-09-23T23:40:37.812Z,1.43
2018-09-23T23:43:07.016Z,1.50
2018-09-23T23:45:36.212Z,1.27
2018-09-23T23:48:05.334Z,1.20
2018-09-23T23:50:34.546Z,0.90
2018-09-23T23:53:03.640Z,1.50
2018-09-23T23:55:32.826Z,1.40
2018-09-23T23:58:02.111Z,1.50
